Time;durP1;ratioP1;P1;durP2;ratioP2;P2;SDS_P1;SDS_P2;PMS_P1;PMS_P2;Temp;Humidity;BMP_temperature;BMP_pressure;BME280_temperature;BME280_humidity;BME280_pressure;Samples;Min_cycle;Max_cycle;Signal;HPM_P1;HPM_P2
2021/12/13 00:00:07;;;;;;;3.92;2.90;;;4.20;67.50;;;;;;5060975;28;46354;-66
2021/12/13 00:02:50;;;;;;;4.93;2.90;;;4.20;67.30;;;;;;5044352;28;46496;-67
2021/12/13 00:05:31;;;;;;;3.40;2.70;;;4.20;67.30;;;;;;5060827;28;47418;-66
2021/12/13 00:08:01;;;;;;;3.17;2.22;;;4.30;67.20;;;;;;5060328;28;46408;-66
2021/12/13 00:10:54;;;;;;;4.82;2.63;;;4.30;67.20;;;;;;5060594;28;46434;-66
2021/12/13 00:13:26;;;;;;;2.57;2.20;;;4.30;67.30;;;;;;5060974;28;45922;-67
2021/12/13 00:16:00;;;;;;;3.78;2.42;;;4.30;67.40;;;;;;5061879;28;46397;-67
2021/12/13 00:18:33;;;;;;;3.67;2.88;;;4.30;67.40;;;;;;5060006;28;46412;-67
2021/12/13 00:21:08;;;;;;;4.55;2.40;;;4.30;67.60;;;;;;5059964;28;46333;-68
2021/12/13 00:23:43;;;;;;;3.30;2.22;;;4.20;67.50;;;;;;5060780;28;46356;-68
2021/12/13 00:26:10;;;;;;;4.00;2.00;;;4.30;67.50;;;;;;5060574;28;48096;-68
2021/12/13 00:28:39;;;;;;;3.60;2.53;;;4.30;67.60;;;;;;5060406;28;46394;-67
2021/12/13 00:31:23;;;;;;;3.93;2.40;;;4.20;67.70;;;;;;5059599;28;46578;-69
2021/12/13 00:34:01;;;;;;;2.70;2.30;;;4.20;67.90;;;;;;5060510;28;46460;-68
2021/12/13 00:36:38;;;;;;;2.83;2.23;;;4.20;68.10;;;;;;5060616;28;46270;-68
2021/12/13 00:39:32;;;;;;;4.72;1.77;;;4.20;68.20;;;;;;5060309;28;46351;-69
2021/12/13 00:42:00;;;;;;;4.95;2.30;;;4.10;68.20;;;;;;5023459;28;46447;-69
2021/12/13 00:44:42;;;;;;;4.20;2.33;;;4.10;68.20;;;;;;5060588;28;46306;-68
2021/12/13 00:47:17;;;;;;;3.27;2.23;;;4.20;68.30;;;;;;5060000;28;48332;-69
2021/12/13 00:49:47;;;;;;;4.05;1.90;;;4.20;68.40;;;;;;5061046;28;46407;-68
2021/12/13 00:52:18;;;;;;;4.03;2.63;;;4.20;68.20;;;;;;5060063;28;46508;-68
2021/12/13 00:54:45;;;;;;;3.40;2.30;;;4.20;68.20;;;;;;5060351;28;46534;-68
2021/12/13 00:57:28;;;;;;;3.70;2.10;;;4.20;68.30;;;;;;5060209;28;47732;-69
2021/12/13 00:59:57;;;;;;;3.10;2.20;;;4.20;68.20;;;;;;5059419;28;46471;-68
2021/12/13 01:02:31;;;;;;;7.97;2.17;;;4.30;68.40;;;;;;5059981;28;46335;-68
2021/12/13 01:05:17;;;;;;;2.10;1.70;;;4.30;68.20;;;;;;5059435;28;46633;-68
2021/12/13 01:08:07;;;;;;;2.67;1.93;;;4.30;68.20;;;;;;5060082;28;46391;-69
2021/12/13 01:10:39;;;;;;;2.67;1.98;;;4.30;68.20;;;;;;5059191;28;46456;-68
2021/12/13 01:13:29;;;;;;;5.50;2.20;;;4.30;68.40;;;;;;5059731;28;46439;-68
2021/12/13 01:16:21;;;;;;;3.10;2.17;;;4.30;68.60;;;;;;5060606;28;46414;-68
2021/12/13 01:19:02;;;;;;;2.97;1.70;;;4.20;68.50;;;;;;5059897;28;46407;-68
2021/12/13 01:21:42;;;;;;;3.67;2.00;;;4.20;68.70;;;;;;5060357;28;46467;-69
2021/12/13 01:24:41;;;;;;;2.53;2.00;;;4.20;68.90;;;;;;5059557;28;46454;-68
2021/12/13 01:27:07;;;;;;;2.17;1.70;;;4.20;69.00;;;;;;5060388;28;46361;-69
2021/12/13 01:29:32;;;;;;;2.50;1.63;;;4.20;69.20;;;;;;5059276;28;47714;-68
2021/12/13 01:32:06;;;;;;;2.53;1.73;;;4.20;69.10;;;;;;5059672;28;46538;-68
2021/12/13 01:34:34;;;;;;;4.22;2.00;;;4.20;69.20;;;;;;5059752;28;46637;-67
2021/12/13 01:37:10;;;;;;;4.17;1.70;;;4.20;69.30;;;;;;5059907;28;45870;-69
2021/12/13 01:39:41;;;;;;;2.50;1.60;;;4.20;69.20;;;;;;5058829;28;48051;-68
2021/12/13 01:42:18;;;;;;;2.15;1.80;;;4.20;69.50;;;;;;5059796;28;46402;-66
2021/12/13 01:44:48;;;;;;;2.45;1.90;;;4.20;69.40;;;;;;5059148;28;46439;-69
2021/12/13 01:47:22;;;;;;;2.17;1.70;;;4.20;69.40;;;;;;5059157;28;46505;-69
2021/12/13 01:50:04;;;;;;;4.07;1.73;;;4.30;69.40;;;;;;5059264;28;49040;-68
2021/12/13 01:52:33;;;;;;;3.05;1.90;;;4.30;69.30;;;;;;5058572;28;46393;-67
2021/12/13 01:55:09;;;;;;;4.00;2.47;;;4.30;69.60;;;;;;5058761;28;45776;-69
2021/12/13 01:57:56;;;;;;;2.20;1.70;;;4.30;69.90;;;;;;5059400;28;46508;-68
2021/12/13 02:00:44;;;;;;;2.40;1.87;;;4.20;69.80;;;;;;5058732;28;47322;-68
2021/12/13 02:03:10;;;;;;;3.28;2.30;;;4.20;69.90;;;;;;5058877;28;46399;-68
2021/12/13 02:05:36;;;;;;;2.90;1.80;;;4.20;70.00;;;;;;5059307;28;46404;-67
2021/12/13 02:08:11;;;;;;;3.03;2.10;;;4.20;70.10;;;;;;5059051;28;45968;-68
2021/12/13 02:10:56;;;;;;;2.73;2.07;;;4.30;70.30;;;;;;5060139;28;48598;-68
2021/12/13 02:13:27;;;;;;;2.90;2.10;;;4.30;70.30;;;;;;5060683;28;46902;-68
2021/12/13 02:18:46;;;;;;;3.10;1.97;;;4.30;70.10;;;;;;5064905;28;46428;-69
2021/12/13 02:21:23;;;;;;;3.90;2.40;;;4.30;70.10;;;;;;5061778;28;48040;-69
2021/12/13 02:23:53;;;;;;;3.72;2.10;;;4.40;70.20;;;;;;5063831;28;46357;-67
2021/12/13 02:26:19;;;;;;;1.88;1.67;;;4.40;70.30;;;;;;5062609;28;46420;-66
2021/12/13 02:28:52;;;;;;;2.70;1.80;;;4.40;70.20;;;;;;5062619;28;46451;-66
2021/12/13 02:31:32;;;;;;;2.30;2.10;;;4.40;70.30;;;;;;5061837;28;48047;-66
2021/12/13 02:34:05;;;;;;;2.67;2.00;;;4.40;70.30;;;;;;5061896;28;46514;-67
2021/12/13 02:36:44;;;;;;;3.17;1.90;;;4.40;70.40;;;;;;5062622;28;46382;-66
2021/12/13 02:39:16;;;;;;;3.00;2.00;;;4.40;70.50;;;;;;5062473;28;46396;-67
2021/12/13 02:41:44;;;;;;;2.80;2.20;;;4.40;70.60;;;;;;5062089;28;48882;-66
2021/12/13 02:44:24;;;;;;;2.90;2.22;;;4.40;70.50;;;;;;5061620;28;46373;-67
2021/12/13 02:46:55;;;;;;;3.20;2.30;;;4.40;70.60;;;;;;5062389;28;46415;-67
2021/12/13 02:49:21;;;;;;;3.43;1.93;;;4.40;70.80;;;;;;5061473;28;46391;-68
2021/12/13 02:51:54;;;;;;;3.87;2.03;;;4.40;70.80;;;;;;5078058;28;46538;-66
2021/12/13 02:54:27;;;;;;;2.75;2.25;;;4.30;70.90;;;;;;5060995;28;46429;-68
2021/12/13 02:57:02;;;;;;;2.80;2.20;;;4.40;71.00;;;;;;5060350;28;46393;-67
2021/12/13 02:59:32;;;;;;;2.10;1.67;;;4.40;71.00;;;;;;5061806;28;46421;-66
2021/12/13 03:02:29;;;;;;;3.27;2.10;;;4.40;71.10;;;;;;5061113;28;48853;-67
2021/12/13 03:04:56;;;;;;;5.63;2.00;;;4.40;71.30;;;;;;5060175;28;46609;-66
2021/12/13 03:07:31;;;;;;;3.10;1.90;;;4.40;71.20;;;;;;5060642;28;46390;-67
2021/12/13 03:09:58;;;;;;;1.90;1.60;;;4.40;71.20;;;;;;5060111;28;46314;-66
2021/12/13 03:12:27;;;;;;;2.50;1.83;;;4.40;71.30;;;;;;5060156;28;46491;-66
2021/12/13 03:15:00;;;;;;;2.20;1.57;;;4.40;71.50;;;;;;5059823;28;46451;-67
2021/12/13 03:17:35;;;;;;;1.90;1.50;;;4.40;71.40;;;;;;5059753;28;46457;-66
2021/12/13 03:20:19;;;;;;;1.67;1.50;;;4.40;71.60;;;;;;5060540;28;46689;-67
2021/12/13 03:22:47;;;;;;;2.10;1.70;;;4.40;71.60;;;;;;5058518;28;47909;-67
2021/12/13 03:25:52;;;;;;;1.88;1.52;;;4.40;71.70;;;;;;5057898;28;46497;-65
2021/12/13 03:28:37;;;;;;;1.95;1.40;;;4.40;71.90;;;;;;5058437;28;46443;-66
2021/12/13 03:31:14;;;;;;;2.50;1.60;;;4.40;71.80;;;;;;5058834;28;46548;-67
2021/12/13 03:34:16;;;;;;;2.20;1.50;;;4.40;71.80;;;;;;5059314;28;46590;-67
2021/12/13 03:37:06;;;;;;;1.80;1.65;;;4.40;71.90;;;;;;5059854;28;46660;-66
2021/12/13 03:39:39;;;;;;;2.78;1.70;;;4.40;71.90;;;;;;5062293;28;46414;-66
2021/12/13 03:42:33;;;;;;;2.60;1.40;;;4.40;71.80;;;;;;5060854;28;46635;-67
2021/12/13 03:45:04;;;;;;;3.00;1.40;;;4.40;72.00;;;;;;5022353;28;48063;-67
2021/12/13 03:47:38;;;;;;;4.50;1.42;;;4.40;71.90;;;;;;5062078;28;46812;-67
2021/12/13 03:50:15;;;;;;;1.70;1.20;;;4.40;72.60;;;;;;5061071;28;46337;-68
2021/12/13 03:52:45;;;;;;;2.33;1.57;;;4.50;71.90;;;;;;5061533;28;46653;-68
2021/12/13 03:55:16;;;;;;;1.67;1.50;;;4.50;72.00;;;;;;5060369;28;48188;-68
2021/12/13 03:57:50;;;;;;;2.10;1.70;;;4.50;72.00;;;;;;5061030;28;46402;-68
2021/12/13 04:00:21;;;;;;;2.42;1.50;;;4.50;72.10;;;;;;5060895;28;46707;-68
2021/12/13 04:02:47;;;;;;;1.70;1.30;;;4.40;72.20;;;;;;5060834;28;46275;-68
2021/12/13 04:05:18;;;;;;;1.20;1.10;;;4.40;72.30;;;;;;5060479;28;47996;-68
2021/12/13 04:07:49;;;;;;;3.10;1.60;;;4.40;72.70;;;;;;5060241;28;46461;-67
2021/12/13 04:10:15;;;;;;;2.07;1.40;;;4.40;72.60;;;;;;5060643;28;46434;-66
2021/12/13 04:12:47;;;;;;;1.80;1.20;;;4.40;72.60;;;;;;5060146;28;46592;-68
2021/12/13 04:15:26;;;;;;;1.50;1.20;;;4.50;72.70;;;;;;5060524;28;48053;-67
2021/12/13 04:20:36;;;;;;;3.58;1.42;;;4.40;73.00;;;;;;5058870;28;46420;-68
2021/12/13 04:23:18;;;;;;;2.10;1.53;;;4.40;73.20;;;;;;5060462;28;46414;-68
2021/12/13 04:25:47;;;;;;;2.23;1.30;;;4.40;73.20;;;;;;5060717;28;47315;-66
2021/12/13 04:28:31;;;;;;;2.15;1.40;;;4.40;73.10;;;;;;5059394;28;46434;-68
2021/12/13 04:31:01;;;;;;;1.75;1.38;;;4.40;73.10;;;;;;5060728;28;46627;-69
2021/12/13 04:33:49;;;;;;;1.87;1.33;;;4.50;73.20;;;;;;5060449;28;46559;-67
2021/12/13 04:36:26;;;;;;;1.50;1.20;;;4.50;73.00;;;;;;5059027;28;48986;-68
2021/12/13 04:39:32;;;;;;;2.05;1.40;;;4.50;72.90;;;;;;5059396;28;46430;-67
2021/12/13 04:42:01;;;;;;;2.73;1.40;;;4.50;73.10;;;;;;5059308;28;46489;-67
2021/12/13 04:44:35;;;;;;;1.87;1.33;;;4.50;73.20;;;;;;5059937;28;46382;-67
2021/12/13 04:47:09;;;;;;;2.40;1.60;;;4.50;73.20;;;;;;5060312;28;47787;-67
2021/12/13 04:49:38;;;;;;;4.00;1.65;;;4.40;73.10;;;;;;5059085;28;46283;-68
2021/12/13 04:52:14;;;;;;;4.80;1.90;;;4.40;73.10;;;;;;5059917;28;45854;-68
2021/12/13 04:54:48;;;;;;;1.50;1.17;;;4.50;73.20;;;;;;5060055;28;46386;-66
2021/12/13 04:57:16;;;;;;;2.15;1.40;;;4.50;73.20;;;;;;5059736;28;48097;-68
2021/12/13 04:59:54;;;;;;;2.50;1.65;;;4.50;73.10;;;;;;5059690;28;46384;-68
2021/12/13 05:02:22;;;;;;;5.47;1.90;;;4.50;73.20;;;;;;5059968;28;46468;-69
2021/12/13 05:04:53;;;;;;;2.50;1.80;;;4.40;73.10;;;;;;5060215;28;46656;-68
2021/12/13 05:07:19;;;;;;;4.60;2.03;;;4.40;73.20;;;;;;5059808;28;48139;-68
2021/12/13 05:09:48;;;;;;;3.30;2.20;;;4.40;73.10;;;;;;5059721;28;46406;-67
2021/12/13 05:12:17;;;;;;;4.30;2.10;;;4.40;73.10;;;;;;5076333;28;45863;-67
2021/12/13 05:14:57;;;;;;;5.93;2.30;;;4.40;73.10;;;;;;5059929;28;46409;-67
2021/12/13 05:17:44;;;;;;;4.00;2.30;;;4.40;73.20;;;;;;5059801;28;46368;-68
2021/12/13 05:20:21;;;;;;;3.10;1.95;;;4.40;73.10;;;;;;5061255;28;46361;-67
2021/12/13 05:22:55;;;;;;;3.15;2.15;;;4.50;73.20;;;;;;5059100;28;46484;-68
2021/12/13 05:25:33;;;;;;;2.90;2.47;;;4.50;73.20;;;;;;5060047;28;46542;-67
2021/12/13 05:28:21;;;;;;;2.60;2.00;;;4.50;73.20;;;;;;5059706;28;48967;-65
2021/12/13 05:31:02;;;;;;;3.30;2.30;;;4.60;73.30;;;;;;5058543;28;46440;-67
2021/12/13 05:33:31;;;;;;;6.63;3.53;;;4.60;73.00;;;;;;5059113;28;46505;-67
2021/12/13 05:36:01;;;;;;;7.87;3.30;;;4.60;72.80;;;;;;5076400;28;46659;-68
2021/12/13 05:38:45;;;;;;;7.95;3.67;;;4.60;72.70;;;;;;5059200;28;46471;-66
2021/12/13 05:41:23;;;;;;;4.63;3.63;;;4.60;72.70;;;;;;5059168;28;46552;-67
2021/12/13 05:44:03;;;;;;;8.70;4.20;;;4.60;73.00;;;;;;5058862;28;46377;-67
2021/12/13 05:46:36;;;;;;;5.60;2.90;;;4.60;73.30;;;;;;5059068;28;46442;-67
2021/12/13 05:49:07;;;;;;;9.40;4.70;;;4.60;73.30;;;;;;5059338;28;46409;-67
2021/12/13 05:51:34;;;;;;;4.72;3.55;;;4.60;73.30;;;;;;5059084;28;46508;-67
2021/12/13 05:54:11;;;;;;;4.45;3.15;;;4.60;73.40;;;;;;5058609;28;45904;-67
2021/12/13 05:56:48;;;;;;;6.03;4.17;;;4.60;73.30;;;;;;5059139;28;46290;-66
2021/12/13 05:59:13;;;;;;;8.33;4.30;;;4.60;73.30;;;;;;5059384;28;47840;-67
2021/12/13 06:01:57;;;;;;;6.00;3.80;;;4.60;73.00;;;;;;5058836;28;46403;-67
2021/12/13 06:04:36;;;;;;;8.40;4.53;;;4.70;72.70;;;;;;5058793;28;46397;-67
2021/12/13 06:07:13;;;;;;;5.13;4.17;;;4.80;72.50;;;;;;5059654;28;46644;-67
2021/12/13 06:09:51;;;;;;;7.93;4.80;;;4.80;72.30;;;;;;5059602;28;46493;-67
2021/12/13 06:12:36;;;;;;;11.07;6.03;;;4.90;72.30;;;;;;5059316;28;46366;-67
2021/12/13 06:15:28;;;;;;;18.27;9.90;;;4.90;72.00;;;;;;5059246;28;46418;-66
2021/12/13 06:18:01;;;;;;;13.40;9.10;;;5.00;71.70;;;;;;5059276;28;46647;-67
2021/12/13 06:20:52;;;;;;;19.60;11.00;;;5.00;71.70;;;;;;5058676;28;48046;-67
2021/12/13 06:23:38;;;;;;;14.25;9.77;;;5.00;71.70;;;;;;5058632;28;46423;-67
2021/12/13 06:26:11;;;;;;;15.85;10.20;;;5.00;71.80;;;;;;5059566;28;45849;-67
2021/12/13 06:28:39;;;;;;;11.90;8.00;;;5.00;71.80;;;;;;5060301;28;46429;-69
2021/12/13 06:31:14;;;;;;;10.13;7.57;;;5.00;71.90;;;;;;5058214;28;49197;-67
2021/12/13 06:33:57;;;;;;;7.93;5.70;;;5.00;71.90;;;;;;5058135;28;46403;-68
2021/12/13 06:36:39;;;;;;;18.20;11.60;;;5.00;72.10;;;;;;5058179;28;46295;-68
2021/12/13 06:39:10;;;;;;;9.50;6.53;;;5.00;72.10;;;;;;5057996;28;46400;-67
2021/12/13 06:41:43;;;;;;;13.07;7.13;;;5.00;72.00;;;;;;5058012;28;47292;-66
2021/12/13 06:44:29;;;;;;;13.27;7.00;;;5.10;72.10;;;;;;5058280;28;46388;-66
2021/12/13 06:47:06;;;;;;;9.00;5.87;;;5.10;72.10;;;;;;5057653;28;46369;-67
2021/12/13 06:49:35;;;;;;;6.13;5.53;;;5.10;72.20;;;;;;5058912;28;46640;-67
2021/12/13 06:52:08;;;;;;;6.47;5.63;;;5.10;72.30;;;;;;5052835;28;46905;-68
2021/12/13 06:54:42;;;;;;;12.25;5.90;;;5.10;72.20;;;;;;5057102;28;46512;-67
2021/12/13 06:57:13;;;;;;;5.80;5.17;;;5.10;72.20;;;;;;5058317;28;46433;-68
2021/12/13 06:59:50;;;;;;;5.37;4.20;;;5.10;72.40;;;;;;5060333;28;46425;-67
2021/12/13 07:02:25;;;;;;;11.03;3.53;;;5.20;72.50;;;;;;5061017;28;49099;-67
2021/12/13 07:05:18;;;;;;;4.83;3.17;;;5.20;72.50;;;;;;5062470;28;46456;-67
2021/12/13 07:08:01;;;;;;;43.90;24.77;;;5.20;72.60;;;;;;5062698;28;46395;-68
2021/12/13 07:10:35;;;;;;;11.40;7.90;;;5.20;72.70;;;;;;5062689;28;46359;-67
2021/12/13 07:13:06;;;;;;;8.37;4.90;;;5.10;72.90;;;;;;5061027;28;47916;-68
2021/12/13 07:15:42;;;;;;;6.28;4.72;;;5.10;72.80;;;;;;5060052;28;46356;-68
2021/12/13 07:18:13;;;;;;;5.97;4.37;;;5.20;72.80;;;;;;5060997;28;46374;-68
2021/12/13 07:20:43;;;;;;;6.00;4.33;;;5.20;72.80;;;;;;5062443;28;46541;-67
2021/12/13 07:23:09;;;;;;;8.03;4.53;;;5.30;72.50;;;;;;5062135;28;46394;-67
2021/12/13 07:25:39;;;;;;;5.90;4.40;;;5.30;72.30;;;;;;5061904;28;46319;-67
2021/12/13 07:28:07;;;;;;;5.97;4.60;;;5.40;72.50;;;;;;5061917;28;46436;-67
2021/12/13 07:30:35;;;;;;;7.10;5.20;;;5.40;72.50;;;;;;5059380;28;46554;-67
2021/12/13 07:33:05;;;;;;;6.13;4.83;;;5.40;72.40;;;;;;5072957;27;47105;-66
2021/12/13 07:35:40;;;;;;;10.18;6.50;;;5.40;72.30;;;;;;5078044;27;46459;-67
2021/12/13 07:38:18;;;;;;;9.70;6.20;;;5.40;72.30;;;;;;5061424;28;46394;-67
2021/12/13 07:40:52;;;;;;;13.60;8.70;;;5.40;72.40;;;;;;5062768;28;46430;-67
2021/12/13 07:43:32;;;;;;;11.07;7.60;;;5.50;72.60;;;;;;5060985;28;49022;-67
2021/12/13 07:46:19;;;;;;;12.43;8.53;;;5.50;72.50;;;;;;5060577;28;46599;-67
2021/12/13 07:48:45;;;;;;;9.00;6.30;;;5.50;72.40;;;;;;5060646;28;46356;-67
2021/12/13 07:51:31;;;;;;;9.97;5.47;;;5.60;72.30;;;;;;5060361;28;46404;-71
2021/12/13 07:53:57;;;;;;;8.57;5.80;;;5.60;72.30;;;;;;5060634;28;49070;-68
2021/12/13 07:56:42;;;;;;;6.47;5.80;;;5.70;72.30;;;;;;5062332;28;46648;-66
2021/12/13 07:59:24;;;;;;;7.73;5.20;;;5.80;72.00;;;;;;5061323;28;46374;-66
2021/12/13 08:02:26;;;;;;;11.70;7.93;;;5.90;71.90;;;;;;5061003;28;46411;-67
2021/12/13 08:05:08;;;;;;;17.27;13.33;;;6.00;71.70;;;;;;5060910;28;46382;-67
2021/12/13 08:07:52;;;;;;;18.38;11.73;;;6.10;71.60;;;;;;5056913;28;46487;-66
2021/12/13 08:10:37;;;;;;;12.87;9.63;;;6.10;71.40;;;;;;5060066;28;45986;-66
2021/12/13 08:13:09;;;;;;;12.50;9.30;;;6.10;71.40;;;;;;5059737;28;46438;-66
2021/12/13 08:15:39;;;;;;;10.97;7.90;;;6.20;71.70;;;;;;5060570;28;47453;-66
2021/12/13 08:18:30;;;;;;;11.40;8.03;;;6.20;71.70;;;;;;5060939;28;46414;-67
2021/12/13 08:20:58;;;;;;;11.50;8.47;;;6.30;71.50;;;;;;5060392;28;46406;-68
2021/12/13 08:23:35;;;;;;;16.70;11.67;;;6.30;71.50;;;;;;5059901;28;46392;-66
2021/12/13 08:26:06;;;;;;;11.53;8.27;;;6.40;71.60;;;;;;5059256;28;48093;-66
2021/12/13 08:28:43;;;;;;;10.40;7.33;;;6.50;71.50;;;;;;5059052;28;46401;-67
2021/12/13 08:31:20;;;;;;;12.65;8.40;;;6.50;71.60;;;;;;5057914;28;46512;-67
2021/12/13 08:33:49;;;;;;;13.63;7.10;;;6.50;71.50;;;;;;5059068;28;46461;-68
2021/12/13 08:36:26;;;;;;;5.50;4.50;;;6.60;72.20;;;;;;5060087;28;46106;-67
2021/12/13 08:39:11;;;;;;;8.10;5.30;;;6.60;72.30;;;;;;5058743;28;46611;-67
2021/12/13 08:41:43;;;;;;;4.30;3.90;;;6.50;72.60;;;;;;5060045;28;46513;-68
2021/12/13 08:44:12;;;;;;;7.07;5.67;;;6.50;72.60;;;;;;5058422;28;46386;-67
2021/12/13 08:46:45;;;;;;;10.00;5.23;;;6.50;72.60;;;;;;5060466;28;46596;-67
2021/12/13 08:49:32;;;;;;;12.23;4.60;;;6.60;72.40;;;;;;5059915;28;46472;-67
2021/12/13 08:52:15;;;;;;;5.77;4.60;;;6.70;72.10;;;;;;5059149;28;45791;-66
2021/12/13 08:54:47;;;;;;;11.03;4.40;;;6.90;71.50;;;;;;5059596;28;46441;-66
2021/12/13 08:57:33;;;;;;;7.43;6.00;;;7.00;70.90;;;;;;5059706;28;47870;-67
2021/12/13 09:00:04;;;;;;;9.07;6.37;;;7.20;70.50;;;;;;5060302;28;46376;-67
2021/12/13 09:02:41;;;;;;;9.30;5.80;;;7.20;70.20;;;;;;5057901;28;46445;-67
2021/12/13 09:05:26;;;;;;;14.37;8.97;;;7.20;70.30;;;;;;5059905;28;46417;-67
2021/12/13 09:08:00;;;;;;;26.70;17.37;;;7.10;70.40;;;;;;5058699;28;46426;-66
2021/12/13 09:11:01;;;;;;;32.00;22.07;;;7.10;70.50;;;;;;5059278;28;46496;-66
2021/12/13 09:13:44;;;;;;;28.00;18.20;;;7.00;70.50;;;;;;5015917;28;46500;-66
2021/12/13 09:16:11;;;;;;;18.03;12.40;;;6.90;70.90;;;;;;5059672;28;46402;-66
2021/12/13 09:18:37;;;;;;;16.80;10.33;;;6.80;71.40;;;;;;5075363;28;46436;-67
2021/12/13 09:21:05;;;;;;;11.13;8.17;;;6.70;71.60;;;;;;5058168;28;46518;-68
2021/12/13 09:23:40;;;;;;;11.17;7.87;;;6.60;71.90;;;;;;5059650;28;46417;-67
2021/12/13 09:26:14;;;;;;;11.33;6.63;;;6.60;72.00;;;;;;5058968;28;46530;-66
2021/12/13 09:28:52;;;;;;;8.40;4.70;;;6.70;72.10;;;;;;5059334;28;48458;-67
2021/12/13 09:31:27;;;;;;;7.57;4.73;;;6.90;71.80;;;;;;5059699;28;46426;-67
2021/12/13 09:34:00;;;;;;;7.40;3.70;;;7.20;71.10;;;;;;5059709;28;46435;-67
2021/12/13 09:36:27;;;;;;;8.40;3.90;;;7.50;70.30;;;;;;5059367;28;46654;-67
2021/12/13 09:39:05;;;;;;;5.80;3.93;;;7.70;69.90;;;;;;5059266;28;49011;-67
2021/12/13 09:41:45;;;;;;;9.90;4.07;;;7.80;69.40;;;;;;5059492;28;46449;-67
2021/12/13 09:44:11;;;;;;;7.20;3.73;;;8.00;69.30;;;;;;5059401;28;46335;-67
2021/12/13 09:46:39;;;;;;;7.07;3.67;;;8.20;69.00;;;;;;5058511;28;46462;-68
2021/12/13 09:49:24;;;;;;;8.20;4.60;;;8.30;68.70;;;;;;5059204;28;48128;-65
2021/12/13 09:51:53;;;;;;;11.93;7.33;;;8.40;68.70;;;;;;5058492;28;45855;-66
2021/12/13 09:54:26;;;;;;;8.37;6.13;;;8.40;68.20;;;;;;5060480;28;46396;-66
2021/12/13 09:56:52;;;;;;;8.23;4.80;;;8.50;68.20;;;;;;5058891;28;46438;-66
2021/12/13 09:59:27;;;;;;;6.50;4.60;;;8.60;68.20;;;;;;5057710;28;47878;-67
2021/12/13 10:01:55;;;;;;;7.90;4.50;;;8.60;68.30;;;;;;5058618;28;46422;-67
2021/12/13 10:04:35;;;;;;;5.60;3.80;;;8.70;68.30;;;;;;5059177;28;46363;-67
2021/12/13 10:07:20;;;;;;;6.67;4.30;;;8.80;68.30;;;;;;5059780;28;46607;-67
2021/12/13 10:09:53;;;;;;;7.20;4.40;;;8.80;68.10;;;;;;5059344;28;47373;-67
2021/12/13 10:12:28;;;;;;;8.57;4.27;;;8.90;68.00;;;;;;5058580;28;45863;-66
2021/12/13 10:15:05;;;;;;;6.07;3.83;;;9.10;67.90;;;;;;5058814;28;46409;-67
2021/12/13 10:17:38;;;;;;;11.73;4.20;;;9.30;67.80;;;;;;5058949;28;45890;-67
2021/12/13 10:20:13;;;;;;;4.90;4.03;;;9.50;67.10;;;;;;5058611;28;47800;-67
2021/12/13 10:22:39;;;;;;;6.43;4.30;;;9.50;67.30;;;;;;5057945;28;46395;-67
2021/12/13 10:25:16;;;;;;;6.23;4.43;;;9.40;67.30;;;;;;5059142;28;46382;-68
2021/12/13 10:27:48;;;;;;;4.20;3.60;;;9.30;67.50;;;;;;5058844;28;46683;-68
2021/12/13 10:30:20;;;;;;;7.93;4.00;;;9.20;67.30;;;;;;5058572;28;47739;-69
2021/12/13 10:32:50;;;;;;;6.13;3.67;;;9.20;67.40;;;;;;5058350;28;46410;-68
2021/12/13 10:35:26;;;;;;;7.10;4.73;;;9.20;67.40;;;;;;5061372;28;46573;-67
2021/12/13 10:37:56;;;;;;;7.50;5.40;;;9.20;67.60;;;;;;5061786;28;46430;-69
2021/12/13 10:40:38;;;;;;;9.30;4.93;;;9.30;67.60;;;;;;5063997;28;47439;-68
2021/12/13 10:43:07;;;;;;;5.47;3.40;;;9.30;67.60;;;;;;5061507;28;46464;-68
2021/12/13 10:45:44;;;;;;;7.97;3.60;;;9.30;67.60;;;;;;5061752;28;46366;-68
2021/12/13 10:48:14;;;;;;;5.67;3.83;;;9.30;67.40;;;;;;5062690;28;46420;-68
2021/12/13 10:50:45;;;;;;;6.20;3.80;;;9.30;67.50;;;;;;5065129;28;47761;-68
2021/12/13 10:53:17;;;;;;;4.70;3.50;;;9.20;67.40;;;;;;5065733;28;45886;-66
2021/12/13 10:55:51;;;;;;;7.50;3.67;;;9.10;67.70;;;;;;5065510;28;46358;-68
2021/12/13 10:58:20;;;;;;;5.67;3.80;;;9.10;67.90;;;;;;5063299;28;46403;-68
2021/12/13 11:00:52;;;;;;;5.50;3.37;;;9.00;68.10;;;;;;5062666;28;46659;-69
2021/12/13 11:03:25;;;;;;;4.77;3.23;;;8.90;68.30;;;;;;5061357;28;46425;-70
2021/12/13 11:05:54;;;;;;;6.30;3.70;;;8.70;68.70;;;;;;5060527;28;46364;-67
2021/12/13 11:08:22;;;;;;;9.70;3.77;;;8.70;68.80;;;;;;5059519;28;46316;-67
2021/12/13 11:10:54;;;;;;;14.10;3.70;;;8.60;68.90;;;;;;5052708;28;47778;-67
2021/12/13 11:13:27;;;;;;;8.97;4.27;;;8.60;68.90;;;;;;5070927;28;46526;-67
2021/12/13 11:16:00;;;;;;;15.63;4.20;;;8.70;68.80;;;;;;5050175;28;46390;-68
2021/12/13 11:18:31;;;;;;;23.17;5.10;;;8.80;68.30;;;;;;5072310;28;46411;-68
2021/12/13 11:21:22;;;;;;;11.80;4.30;;;8.90;68.10;;;;;;5050798;28;47984;-67
2021/12/13 11:23:49;;;;;;;12.90;6.47;;;9.00;67.90;;;;;;5049407;28;46441;-67
2021/12/13 11:26:20;;;;;;;14.43;6.27;;;9.00;67.70;;;;;;5054085;28;46449;-67
2021/12/13 11:28:47;;;;;;;28.33;7.40;;;9.20;67.50;;;;;;5069248;28;46432;-68
2021/12/13 11:31:55;;;;;;;28.20;7.57;;;9.30;67.50;;;;;;5051856;28;48006;-67
2021/12/13 11:34:48;;;;;;;23.43;7.67;;;9.30;67.50;;;;;;5014372;28;46207;-68
2021/12/13 11:37:45;;;;;;;13.87;7.13;;;9.60;67.30;;;;;;5059317;28;45833;-68
2021/12/13 11:40:25;;;;;;;19.23;8.20;;;9.70;66.90;;;;;;5059796;28;46718;-67
2021/12/13 11:43:28;;;;;;;13.63;5.60;;;9.80;66.80;;;;;;5060551;28;48711;-68
2021/12/13 11:46:26;;;;;;;22.23;5.33;;;9.90;66.80;;;;;;5049878;28;46426;-68
2021/12/13 11:49:29;;;;;;;11.63;4.80;;;9.90;66.80;;;;;;5060171;28;45870;-68
2021/12/13 11:52:29;;;;;;;10.10;4.37;;;9.70;67.00;;;;;;5048761;28;46382;-68
2021/12/13 11:55:35;;;;;;;15.63;5.20;;;9.60;67.20;;;;;;5028978;28;47359;-69
2021/12/13 11:58:37;;;;;;;13.60;5.97;;;9.60;67.10;;;;;;5053144;28;46513;-69
2021/12/13 12:01:43;;;;;;;32.50;9.03;;;9.50;67.10;;;;;;5061554;28;46378;-68
2021/12/13 12:04:43;;;;;;;16.47;9.13;;;9.60;66.90;;;;;;5058339;28;46520;-70
2021/12/13 12:07:14;;;;;;;23.27;8.30;;;9.40;66.80;;;;;;5063213;28;47816;-68
2021/12/13 12:10:20;;;;;;;41.27;10.10;;;9.20;66.80;;;;;;5054467;28;46211;-68
2021/12/13 12:13:16;;;;;;;38.50;11.70;;;9.00;67.10;;;;;;5048918;28;46458;-69
2021/12/13 12:15:46;;;;;;;24.70;11.07;;;8.80;67.30;;;;;;5057245;28;46559;-68
2021/12/13 12:18:21;;;;;;;29.93;9.40;;;8.70;67.40;;;;;;5051889;28;48085;-70
2021/12/13 12:21:29;;;;;;;39.37;11.60;;;8.60;67.50;;;;;;5058660;28;46351;-68
2021/12/13 12:23:55;;;;;;;25.23;10.53;;;8.50;67.70;;;;;;5060742;28;46179;-68
2021/12/13 12:26:22;;;;;;;33.40;9.97;;;8.50;67.60;;;;;;5053595;28;45934;-67
2021/12/13 12:28:50;;;;;;;26.13;8.80;;;8.50;67.50;;;;;;5050694;28;47242;-67
2021/12/13 12:31:19;;;;;;;23.10;9.53;;;8.50;67.30;;;;;;5052567;28;48275;-68
2021/12/13 12:33:47;;;;;;;21.20;10.40;;;8.60;67.40;;;;;;5060538;28;46369;-68
2021/12/13 12:36:20;;;;;;;35.03;11.80;;;8.60;67.10;;;;;;5052831;28;46480;-67
2021/12/13 12:39:04;;;;;;;29.83;11.00;;;8.80;66.90;;;;;;5049884;28;46354;-67
2021/12/13 12:41:45;;;;;;;27.93;8.97;;;8.80;66.90;;;;;;5050374;28;45776;-67
2021/12/13 12:44:21;;;;;;;14.77;8.70;;;8.80;67.00;;;;;;5058418;28;46117;-69
2021/12/13 12:46:48;;;;;;;20.80;9.60;;;8.90;67.00;;;;;;5061322;28;46351;-68
2021/12/13 12:49:22;;;;;;;22.60;8.20;;;9.00;66.90;;;;;;5056602;28;47823;-67
2021/12/13 12:51:52;;;;;;;14.73;9.17;;;9.00;67.20;;;;;;5052546;28;46268;-67
2021/12/13 12:54:21;;;;;;;13.73;7.53;;;9.00;67.40;;;;;;5052557;28;46482;-69
2021/12/13 12:56:55;;;;;;;16.43;7.33;;;8.80;67.70;;;;;;5043495;28;46334;-69
2021/12/13 12:59:27;;;;;;;11.97;6.23;;;8.70;68.20;;;;;;5066537;28;48121;-69
2021/12/13 13:01:59;;;;;;;10.00;5.90;;;8.70;68.20;;;;;;5066185;28;46603;-67
2021/12/13 13:04:35;;;;;;;10.40;6.07;;;8.80;68.20;;;;;;5056373;28;45797;-67
2021/12/13 13:07:01;;;;;;;16.30;6.20;;;8.70;68.30;;;;;;5049785;28;46365;-69
2021/12/13 13:09:41;;;;;;;12.80;7.00;;;8.70;68.30;;;;;;5051868;28;46487;-67
2021/12/13 13:12:09;;;;;;;12.53;5.87;;;8.70;68.00;;;;;;5049802;28;46377;-67
2021/12/13 13:14:44;;;;;;;10.70;6.67;;;8.70;68.00;;;;;;5050411;28;46368;-66
2021/12/13 13:17:12;;;;;;;13.53;6.23;;;8.70;67.90;;;;;;5049825;28;46402;-68
2021/12/13 13:19:42;;;;;;;16.77;6.77;;;8.70;67.90;;;;;;5051765;28;48062;-68
2021/12/13 13:22:14;;;;;;;10.60;5.30;;;8.70;67.90;;;;;;5060051;28;46275;-67
2021/12/13 13:24:43;;;;;;;16.70;5.40;;;8.60;67.90;;;;;;5052557;28;46488;-68
2021/12/13 13:27:10;;;;;;;7.30;5.10;;;8.50;68.20;;;;;;5059992;28;45868;-66
2021/12/13 13:29:37;;;;;;;10.00;6.00;;;8.40;68.20;;;;;;5058224;28;46406;-66
2021/12/13 13:32:06;;;;;;;12.43;6.20;;;8.40;68.40;;;;;;5053560;28;46423;-68
2021/12/13 13:34:38;;;;;;;13.50;7.00;;;8.30;68.40;;;;;;5057405;28;46448;-67
2021/12/13 13:37:04;;;;;;;10.53;6.00;;;8.20;68.50;;;;;;5058669;28;46432;-68
2021/12/13 13:39:43;;;;;;;15.03;6.03;;;8.10;68.60;;;;;;5054072;28;46430;-67
2021/12/13 13:42:14;;;;;;;14.33;5.73;;;8.10;68.80;;;;;;5051734;28;46353;-67
2021/12/13 13:44:58;;;;;;;12.07;6.63;;;8.00;68.90;;;;;;5050350;28;46481;-68